sensor_id;sensor_type;location;lat;lon;timestamp;P1;durP1;ratioP1;P2;durP2;ratioP2
43710;SDS011;29309;42.682;23.372;2022-07-29T00:01:59;14.98;;;7.38;;
43710;SDS011;29309;42.682;23.372;2022-07-29T00:04:25;10.93;;;7.13;;
43710;SDS011;29309;42.682;23.372;2022-07-29T00:06:50;8.88;;;6.43;;
43710;SDS011;29309;42.682;23.372;2022-07-29T00:09:15;7.55;;;6.43;;
43710;SDS011;29309;42.682;23.372;2022-07-29T00:11:41;9.93;;;6.85;;
43710;SDS011;29309;42.682;23.372;2022-07-29T00:14:07;8.48;;;6.20;;
43710;SDS011;29309;42.682;23.372;2022-07-29T00:16:33;9.98;;;6.75;;
43710;SDS011;29309;42.682;23.372;2022-07-29T00:18:58;9.05;;;6.57;;
43710;SDS011;29309;42.682;23.372;2022-07-29T00:21:24;9.75;;;6.85;;
43710;SDS011;29309;42.682;23.372;2022-07-29T00:23:49;8.55;;;6.50;;
43710;SDS011;29309;42.682;23.372;2022-07-29T00:26:15;8.98;;;7.00;;
43710;SDS011;29309;42.682;23.372;2022-07-29T00:28:40;10.38;;;6.90;;
43710;SDS011;29309;42.682;23.372;2022-07-29T00:31:05;12.23;;;7.80;;
43710;SDS011;29309;42.682;23.372;2022-07-29T00:33:31;6.97;;;6.10;;
43710;SDS011;29309;42.682;23.372;2022-07-29T00:35:56;11.88;;;7.28;;
43710;SDS011;29309;42.682;23.372;2022-07-29T00:38:22;12.40;;;7.50;;
43710;SDS011;29309;42.682;23.372;2022-07-29T00:40:47;15.10;;;6.85;;
43710;SDS011;29309;42.682;23.372;2022-07-29T00:43:13;8.60;;;6.95;;
43710;SDS011;29309;42.682;23.372;2022-07-29T00:45:39;10.00;;;6.75;;
43710;SDS011;29309;42.682;23.372;2022-07-29T00:48:09;11.77;;;6.50;;
43710;SDS011;29309;42.682;23.372;2022-07-29T00:50:35;11.82;;;6.78;;
43710;SDS011;29309;42.682;23.372;2022-07-29T00:53:02;10.38;;;7.45;;
43710;SDS011;29309;42.682;23.372;2022-07-29T00:55:30;10.15;;;6.80;;
43710;SDS011;29309;42.682;23.372;2022-07-29T00:57:56;10.70;;;6.90;;
43710;SDS011;29309;42.682;23.372;2022-07-29T01:00:24;8.25;;;6.55;;
43710;SDS011;29309;42.682;23.372;2022-07-29T01:02:51;9.32;;;6.60;;
43710;SDS011;29309;42.682;23.372;2022-07-29T01:05:18;10.38;;;7.13;;
43710;SDS011;29309;42.682;23.372;2022-07-29T01:07:45;12.05;;;7.72;;
43710;SDS011;29309;42.682;23.372;2022-07-29T01:10:12;16.38;;;8.30;;
43710;SDS011;29309;42.682;23.372;2022-07-29T01:12:40;10.38;;;8.20;;
43710;SDS011;29309;42.682;23.372;2022-07-29T01:15:08;13.07;;;7.55;;
43710;SDS011;29309;42.682;23.372;2022-07-29T01:29:05;15.02;;;10.30;;
43710;SDS011;29309;42.682;23.372;2022-07-29T01:34:21;11.85;;;9.15;;
43710;SDS011;29309;42.682;23.372;2022-07-29T01:36:58;14.82;;;10.38;;
43710;SDS011;29309;42.682;23.372;2022-07-29T01:39:44;13.30;;;9.85;;
43710;SDS011;29309;42.682;23.372;2022-07-29T01:45:19;13.88;;;10.18;;
43710;SDS011;29309;42.682;23.372;2022-07-29T01:47:49;16.30;;;11.07;;
43710;SDS011;29309;42.682;23.372;2022-07-29T01:50:28;13.60;;;10.63;;
43710;SDS011;29309;42.682;23.372;2022-07-29T01:52:59;13.35;;;9.95;;
43710;SDS011;29309;42.682;23.372;2022-07-29T01:55:32;15.40;;;11.02;;
43710;SDS011;29309;42.682;23.372;2022-07-29T01:58:02;17.58;;;10.77;;
43710;SDS011;29309;42.682;23.372;2022-07-29T02:00:29;14.45;;;9.90;;
43710;SDS011;29309;42.682;23.372;2022-07-29T02:02:57;18.40;;;11.13;;
43710;SDS011;29309;42.682;23.372;2022-07-29T02:05:26;22.70;;;11.30;;
43710;SDS011;29309;42.682;23.372;2022-07-29T02:07:53;15.60;;;11.20;;
43710;SDS011;29309;42.682;23.372;2022-07-29T02:10:25;16.05;;;10.45;;
43710;SDS011;29309;42.682;23.372;2022-07-29T02:12:54;15.27;;;10.35;;
43710;SDS011;29309;42.682;23.372;2022-07-29T02:15:21;20.50;;;10.15;;
43710;SDS011;29309;42.682;23.372;2022-07-29T02:17:56;19.08;;;10.68;;
43710;SDS011;29309;42.682;23.372;2022-07-29T02:20:37;14.40;;;9.93;;
43710;SDS011;29309;42.682;23.372;2022-07-29T02:23:05;16.45;;;10.95;;
43710;SDS011;29309;42.682;23.372;2022-07-29T02:25:34;15.88;;;11.65;;
43710;SDS011;29309;42.682;23.372;2022-07-29T02:27:59;15.80;;;11.77;;
43710;SDS011;29309;42.682;23.372;2022-07-29T02:30:26;16.15;;;10.68;;
43710;SDS011;29309;42.682;23.372;2022-07-29T02:32:53;17.38;;;11.23;;
43710;SDS011;29309;42.682;23.372;2022-07-29T02:35:20;15.52;;;11.68;;
43710;SDS011;29309;42.682;23.372;2022-07-29T02:37:47;14.38;;;10.18;;
43710;SDS011;29309;42.682;23.372;2022-07-29T02:40:33;16.77;;;11.27;;
43710;SDS011;29309;42.682;23.372;2022-07-29T02:43:01;14.23;;;10.90;;
43710;SDS011;29309;42.682;23.372;2022-07-29T02:45:30;16.20;;;10.10;;
43710;SDS011;29309;42.682;23.372;2022-07-29T02:47:57;12.93;;;9.18;;
43710;SDS011;29309;42.682;23.372;2022-07-29T02:50:35;12.20;;;8.80;;
43710;SDS011;29309;42.682;23.372;2022-07-29T02:53:09;13.45;;;9.02;;
43710;SDS011;29309;42.682;23.372;2022-07-29T02:55:47;11.80;;;8.55;;
43710;SDS011;29309;42.682;23.372;2022-07-29T02:58:21;13.20;;;9.20;;
43710;SDS011;29309;42.682;23.372;2022-07-29T03:00:55;12.25;;;7.97;;
43710;SDS011;29309;42.682;23.372;2022-07-29T03:03:24;14.48;;;8.45;;
43710;SDS011;29309;42.682;23.372;2022-07-29T03:05:56;10.73;;;8.77;;
43710;SDS011;29309;42.682;23.372;2022-07-29T03:08:24;12.32;;;9.35;;
43710;SDS011;29309;42.682;23.372;2022-07-29T03:10:52;15.55;;;10.05;;
43710;SDS011;29309;42.682;23.372;2022-07-29T03:13:19;12.70;;;9.77;;
43710;SDS011;29309;42.682;23.372;2022-07-29T03:15:45;19.70;;;10.25;;
43710;SDS011;29309;42.682;23.372;2022-07-29T03:18:12;12.73;;;9.93;;
43710;SDS011;29309;42.682;23.372;2022-07-29T03:20:38;11.63;;;9.35;;
43710;SDS011;29309;42.682;23.372;2022-07-29T03:23:04;25.98;;;11.90;;
43710;SDS011;29309;42.682;23.372;2022-07-29T03:25:30;13.98;;;9.93;;
43710;SDS011;29309;42.682;23.372;2022-07-29T03:27:55;14.82;;;10.52;;
43710;SDS011;29309;42.682;23.372;2022-07-29T03:30:21;14.05;;;10.38;;
43710;SDS011;29309;42.682;23.372;2022-07-29T03:32:48;17.17;;;10.07;;
43710;SDS011;29309;42.682;23.372;2022-07-29T03:35:15;16.00;;;10.60;;
43710;SDS011;29309;42.682;23.372;2022-07-29T03:37:41;15.43;;;10.52;;
43710;SDS011;29309;42.682;23.372;2022-07-29T03:40:08;17.42;;;10.35;;
43710;SDS011;29309;42.682;23.372;2022-07-29T03:42:37;14.82;;;10.32;;
43710;SDS011;29309;42.682;23.372;2022-07-29T03:45:06;13.02;;;10.25;;
43710;SDS011;29309;42.682;23.372;2022-07-29T03:47:34;13.68;;;10.32;;
43710;SDS011;29309;42.682;23.372;2022-07-29T03:50:04;18.73;;;11.00;;
43710;SDS011;29309;42.682;23.372;2022-07-29T03:52:31;16.30;;;10.43;;
43710;SDS011;29309;42.682;23.372;2022-07-29T03:54:58;16.30;;;9.80;;
43710;SDS011;29309;42.682;23.372;2022-07-29T03:57:24;15.13;;;9.52;;
43710;SDS011;29309;42.682;23.372;2022-07-29T03:59:52;12.38;;;9.30;;
43710;SDS011;29309;42.682;23.372;2022-07-29T04:02:18;15.02;;;9.35;;
43710;SDS011;29309;42.682;23.372;2022-07-29T04:04:45;14.10;;;9.23;;
43710;SDS011;29309;42.682;23.372;2022-07-29T04:07:12;18.05;;;9.60;;
43710;SDS011;29309;42.682;23.372;2022-07-29T04:09:38;16.27;;;11.60;;
43710;SDS011;29309;42.682;23.372;2022-07-29T04:12:04;16.38;;;11.45;;
43710;SDS011;29309;42.682;23.372;2022-07-29T04:14:31;15.82;;;9.85;;
43710;SDS011;29309;42.682;23.372;2022-07-29T04:16:57;12.52;;;9.45;;
43710;SDS011;29309;42.682;23.372;2022-07-29T04:19:22;15.93;;;9.65;;
43710;SDS011;29309;42.682;23.372;2022-07-29T04:21:48;15.48;;;10.38;;
43710;SDS011;29309;42.682;23.372;2022-07-29T04:24:13;16.17;;;10.20;;
43710;SDS011;29309;42.682;23.372;2022-07-29T04:26:39;16.58;;;9.05;;
43710;SDS011;29309;42.682;23.372;2022-07-29T04:29:04;13.52;;;8.45;;
43710;SDS011;29309;42.682;23.372;2022-07-29T04:31:29;14.25;;;8.15;;
43710;SDS011;29309;42.682;23.372;2022-07-29T04:33:55;15.52;;;7.68;;
43710;SDS011;29309;42.682;23.372;2022-07-29T04:36:20;10.75;;;7.40;;
43710;SDS011;29309;42.682;23.372;2022-07-29T04:38:46;9.23;;;7.13;;
43710;SDS011;29309;42.682;23.372;2022-07-29T04:41:11;9.23;;;7.28;;
43710;SDS011;29309;42.682;23.372;2022-07-29T04:43:37;11.80;;;8.10;;
43710;SDS011;29309;42.682;23.372;2022-07-29T04:46:03;10.38;;;7.55;;
43710;SDS011;29309;42.682;23.372;2022-07-29T04:48:31;9.48;;;7.53;;
43710;SDS011;29309;42.682;23.372;2022-07-29T04:50:56;13.20;;;7.65;;
43710;SDS011;29309;42.682;23.372;2022-07-29T04:53:22;9.32;;;7.13;;
43710;SDS011;29309;42.682;23.372;2022-07-29T04:55:48;10.55;;;6.68;;
43710;SDS011;29309;42.682;23.372;2022-07-29T04:58:13;12.98;;;7.63;;
43710;SDS011;29309;42.682;23.372;2022-07-29T05:00:39;12.57;;;7.53;;
43710;SDS011;29309;42.682;23.372;2022-07-29T05:03:05;10.88;;;6.47;;
43710;SDS011;29309;42.682;23.372;2022-07-29T05:05:31;11.68;;;7.28;;
43710;SDS011;29309;42.682;23.372;2022-07-29T05:07:57;11.35;;;7.22;;
43710;SDS011;29309;42.682;23.372;2022-07-29T05:10:22;9.10;;;6.47;;
43710;SDS011;29309;42.682;23.372;2022-07-29T05:12:48;9.30;;;6.65;;
43710;SDS011;29309;42.682;23.372;2022-07-29T05:15:14;7.53;;;5.55;;
43710;SDS011;29309;42.682;23.372;2022-07-29T05:17:41;8.25;;;6.28;;
43710;SDS011;29309;42.682;23.372;2022-07-29T05:20:07;10.35;;;7.05;;
43710;SDS011;29309;42.682;23.372;2022-07-29T05:22:33;11.88;;;6.13;;
43710;SDS011;29309;42.682;23.372;2022-07-29T05:24:58;7.72;;;5.55;;
43710;SDS011;29309;42.682;23.372;2022-07-29T05:27:28;7.93;;;5.55;;
43710;SDS011;29309;42.682;23.372;2022-07-29T05:29:53;7.82;;;5.57;;
43710;SDS011;29309;42.682;23.372;2022-07-29T05:32:19;6.85;;;4.93;;
43710;SDS011;29309;42.682;23.372;2022-07-29T05:34:44;7.38;;;5.35;;
43710;SDS011;29309;42.682;23.372;2022-07-29T05:37:10;10.57;;;5.72;;
43710;SDS011;29309;42.682;23.372;2022-07-29T05:39:35;10.70;;;4.63;;
43710;SDS011;29309;42.682;23.372;2022-07-29T05:42:01;6.20;;;4.55;;
43710;SDS011;29309;42.682;23.372;2022-07-29T05:44:27;12.68;;;4.78;;
43710;SDS011;29309;42.682;23.372;2022-07-29T05:46:52;8.10;;;4.53;;
43710;SDS011;29309;42.682;23.372;2022-07-29T05:49:18;14.10;;;5.60;;
43710;SDS011;29309;42.682;23.372;2022-07-29T05:51:43;9.50;;;5.32;;
43710;SDS011;29309;42.682;23.372;2022-07-29T05:54:09;7.63;;;4.95;;
43710;SDS011;29309;42.682;23.372;2022-07-29T05:56:35;10.40;;;5.50;;
43710;SDS011;29309;42.682;23.372;2022-07-29T05:59:01;10.10;;;5.68;;
43710;SDS011;29309;42.682;23.372;2022-07-29T06:01:27;9.88;;;5.57;;
43710;SDS011;29309;42.682;23.372;2022-07-29T06:03:52;10.27;;;5.47;;
43710;SDS011;29309;42.682;23.372;2022-07-29T06:06:18;6.03;;;5.15;;
43710;SDS011;29309;42.682;23.372;2022-07-29T06:08:43;7.05;;;4.88;;
43710;SDS011;29309;42.682;23.372;2022-07-29T06:11:09;9.35;;;6.00;;
43710;SDS011;29309;42.682;23.372;2022-07-29T06:13:34;7.90;;;5.07;;
43710;SDS011;29309;42.682;23.372;2022-07-29T06:16:00;7.07;;;5.40;;
43710;SDS011;29309;42.682;23.372;2022-07-29T06:18:26;7.22;;;3.95;;
43710;SDS011;29309;42.682;23.372;2022-07-29T06:20:52;5.38;;;4.47;;
43710;SDS011;29309;42.682;23.372;2022-07-29T06:23:18;10.43;;;5.43;;
43710;SDS011;29309;42.682;23.372;2022-07-29T06:25:46;6.78;;;5.20;;
43710;SDS011;29309;42.682;23.372;2022-07-29T06:28:11;10.07;;;5.30;;
43710;SDS011;29309;42.682;23.372;2022-07-29T06:30:38;11.60;;;5.38;;
43710;SDS011;29309;42.682;23.372;2022-07-29T06:33:04;6.43;;;4.53;;
43710;SDS011;29309;42.682;23.372;2022-07-29T06:35:29;6.78;;;5.43;;
43710;SDS011;29309;42.682;23.372;2022-07-29T06:37:55;6.22;;;4.43;;
43710;SDS011;29309;42.682;23.372;2022-07-29T06:40:21;6.63;;;4.45;;
43710;SDS011;29309;42.682;23.372;2022-07-29T06:43:05;4.43;;;3.90;;
43710;SDS011;29309;42.682;23.372;2022-07-29T06:45:33;5.88;;;4.20;;
43710;SDS011;29309;42.682;23.372;2022-07-29T06:47:59;7.35;;;4.32;;
43710;SDS011;29309;42.682;23.372;2022-07-29T06:50:24;5.03;;;4.15;;
43710;SDS011;29309;42.682;23.372;2022-07-29T06:52:50;9.40;;;4.22;;
43710;SDS011;29309;42.682;23.372;2022-07-29T06:55:16;8.68;;;3.88;;
43710;SDS011;29309;42.682;23.372;2022-07-29T06:57:43;5.45;;;4.15;;
43710;SDS011;29309;42.682;23.372;2022-07-29T07:00:09;4.97;;;4.35;;
43710;SDS011;29309;42.682;23.372;2022-07-29T07:02:35;8.70;;;3.40;;
43710;SDS011;29309;42.682;23.372;2022-07-29T07:05:00;5.40;;;4.07;;
43710;SDS011;29309;42.682;23.372;2022-07-29T07:07:26;5.55;;;3.50;;
43710;SDS011;29309;42.682;23.372;2022-07-29T07:09:51;6.32;;;3.60;;
43710;SDS011;29309;42.682;23.372;2022-07-29T07:12:17;6.10;;;4.07;;
43710;SDS011;29309;42.682;23.372;2022-07-29T07:14:42;6.55;;;3.17;;
43710;SDS011;29309;42.682;23.372;2022-07-29T07:17:07;3.72;;;3.05;;
43710;SDS011;29309;42.682;23.372;2022-07-29T07:19:33;3.88;;;2.50;;
43710;SDS011;29309;42.682;23.372;2022-07-29T07:21:58;4.78;;;3.22;;
43710;SDS011;29309;42.682;23.372;2022-07-29T07:24:24;4.13;;;3.03;;
43710;SDS011;29309;42.682;23.372;2022-07-29T07:26:50;3.97;;;2.58;;
43710;SDS011;29309;42.682;23.372;2022-07-29T07:29:16;6.18;;;3.90;;
43710;SDS011;29309;42.682;23.372;2022-07-29T07:31:41;4.07;;;3.08;;
43710;SDS011;29309;42.682;23.372;2022-07-29T07:34:07;3.50;;;3.20;;
43710;SDS011;29309;42.682;23.372;2022-07-29T07:36:32;4.97;;;3.05;;
43710;SDS011;29309;42.682;23.372;2022-07-29T07:38:58;4.28;;;3.03;;
43710;SDS011;29309;42.682;23.372;2022-07-29T07:41:23;5.78;;;3.20;;
43710;SDS011;29309;42.682;23.372;2022-07-29T07:43:49;9.50;;;3.00;;
43710;SDS011;29309;42.682;23.372;2022-07-29T07:46:14;4.90;;;2.75;;
43710;SDS011;29309;42.682;23.372;2022-07-29T07:48:40;4.78;;;2.50;;
43710;SDS011;29309;42.682;23.372;2022-07-29T07:51:06;3.95;;;3.30;;
43710;SDS011;29309;42.682;23.372;2022-07-29T07:53:32;6.72;;;2.97;;
43710;SDS011;29309;42.682;23.372;2022-07-29T07:55:58;4.60;;;2.63;;
43710;SDS011;29309;42.682;23.372;2022-07-29T07:58:25;3.97;;;3.47;;
43710;SDS011;29309;42.682;23.372;2022-07-29T08:00:50;4.47;;;3.17;;
43710;SDS011;29309;42.682;23.372;2022-07-29T08:03:16;4.53;;;2.88;;
43710;SDS011;29309;42.682;23.372;2022-07-29T08:05:41;3.22;;;2.65;;
43710;SDS011;29309;42.682;23.372;2022-07-29T08:08:07;4.72;;;3.17;;
43710;SDS011;29309;42.682;23.372;2022-07-29T08:10:35;3.30;;;2.42;;
43710;SDS011;29309;42.682;23.372;2022-07-29T08:13:21;4.95;;;3.50;;
43710;SDS011;29309;42.682;23.372;2022-07-29T08:15:49;5.72;;;3.10;;
43710;SDS011;29309;42.682;23.372;2022-07-29T08:18:25;4.28;;;2.80;;
43710;SDS011;29309;42.682;23.372;2022-07-29T08:20:51;3.25;;;2.67;;
43710;SDS011;29309;42.682;23.372;2022-07-29T08:23:17;3.55;;;2.58;;
43710;SDS011;29309;42.682;23.372;2022-07-29T08:25:44;9.88;;;3.28;;
43710;SDS011;29309;42.682;23.372;2022-07-29T08:28:09;3.55;;;2.67;;
43710;SDS011;29309;42.682;23.372;2022-07-29T08:30:35;3.10;;;2.30;;
43710;SDS011;29309;42.682;23.372;2022-07-29T08:33:00;5.03;;;3.25;;
43710;SDS011;29309;42.682;23.372;2022-07-29T08:35:26;6.03;;;2.65;;
43710;SDS011;29309;42.682;23.372;2022-07-29T08:37:52;8.00;;;2.83;;
43710;SDS011;29309;42.682;23.372;2022-07-29T08:40:19;4.03;;;2.47;;
43710;SDS011;29309;42.682;23.372;2022-07-29T08:42:50;2.47;;;2.28;;
43710;SDS011;29309;42.682;23.372;2022-07-29T08:45:16;3.28;;;2.53;;
43710;SDS011;29309;42.682;23.372;2022-07-29T08:47:43;6.90;;;2.65;;
43710;SDS011;29309;42.682;23.372;2022-07-29T08:50:10;2.60;;;2.40;;
43710;SDS011;29309;42.682;23.372;2022-07-29T08:52:37;4.70;;;2.83;;
43710;SDS011;29309;42.682;23.372;2022-07-29T08:55:06;3.17;;;2.20;;
43710;SDS011;29309;42.682;23.372;2022-07-29T08:57:33;8.77;;;2.78;;
43710;SDS011;29309;42.682;23.372;2022-07-29T09:00:00;4.57;;;2.80;;
43710;SDS011;29309;42.682;23.372;2022-07-29T09:02:27;7.10;;;2.58;;
43710;SDS011;29309;42.682;23.372;2022-07-29T09:04:56;3.30;;;2.40;;
43710;SDS011;29309;42.682;23.372;2022-07-29T09:07:25;2.50;;;2.28;;
43710;SDS011;29309;42.682;23.372;2022-07-29T09:09:50;5.07;;;2.45;;
43710;SDS011;29309;42.682;23.372;2022-07-29T09:12:16;5.10;;;2.63;;
43710;SDS011;29309;42.682;23.372;2022-07-29T09:14:41;2.30;;;1.92;;
43710;SDS011;29309;42.682;23.372;2022-07-29T09:17:07;9.85;;;2.60;;
43710;SDS011;29309;42.682;23.372;2022-07-29T09:19:33;4.40;;;2.40;;
43710;SDS011;29309;42.682;23.372;2022-07-29T09:22:00;3.45;;;2.40;;
43710;SDS011;29309;42.682;23.372;2022-07-29T09:24:37;5.68;;;4.63;;
43710;SDS011;29309;42.682;23.372;2022-07-29T09:27:18;7.63;;;4.07;;
43710;SDS011;29309;42.682;23.372;2022-07-29T09:30:09;4.53;;;2.35;;
43710;SDS011;29309;42.682;23.372;2022-07-29T09:32:56;3.58;;;2.90;;
43710;SDS011;29309;42.682;23.372;2022-07-29T09:35:24;6.22;;;2.90;;
43710;SDS011;29309;42.682;23.372;2022-07-29T09:37:51;7.80;;;3.30;;
43710;SDS011;29309;42.682;23.372;2022-07-29T09:40:17;5.65;;;3.38;;
43710;SDS011;29309;42.682;23.372;2022-07-29T09:42:48;7.28;;;3.80;;
43710;SDS011;29309;42.682;23.372;2022-07-29T09:45:29;3.25;;;2.40;;
43710;SDS011;29309;42.682;23.372;2022-07-29T09:47:56;4.90;;;2.67;;
43710;SDS011;29309;42.682;23.372;2022-07-29T09:50:41;5.05;;;2.25;;
43710;SDS011;29309;42.682;23.372;2022-07-29T09:53:08;3.65;;;2.33;;
43710;SDS011;29309;42.682;23.372;2022-07-29T09:58:15;4.35;;;2.38;;
43710;SDS011;29309;42.682;23.372;2022-07-29T10:00:44;5.57;;;2.50;;
43710;SDS011;29309;42.682;23.372;2022-07-29T10:03:11;4.45;;;3.22;;
43710;SDS011;29309;42.682;23.372;2022-07-29T10:05:37;10.07;;;2.85;;
43710;SDS011;29309;42.682;23.372;2022-07-29T10:08:05;2.88;;;2.17;;
43710;SDS011;29309;42.682;23.372;2022-07-29T10:10:32;3.42;;;2.25;;
43710;SDS011;29309;42.682;23.372;2022-07-29T10:13:00;6.20;;;2.40;;
43710;SDS011;29309;42.682;23.372;2022-07-29T10:15:29;3.38;;;2.63;;
43710;SDS011;29309;42.682;23.372;2022-07-29T10:17:57;3.00;;;2.30;;
43710;SDS011;29309;42.682;23.372;2022-07-29T10:20:24;3.80;;;2.10;;
43710;SDS011;29309;42.682;23.372;2022-07-29T10:22:51;3.65;;;2.45;;
43710;SDS011;29309;42.682;23.372;2022-07-29T10:25:17;3.40;;;2.20;;
43710;SDS011;29309;42.682;23.372;2022-07-29T10:27:44;3.10;;;2.15;;
43710;SDS011;29309;42.682;23.372;2022-07-29T10:30:12;3.03;;;2.30;;
43710;SDS011;29309;42.682;23.372;2022-07-29T10:35:19;4.72;;;2.13;;
43710;SDS011;29309;42.682;23.372;2022-07-29T10:44:12;4.30;;;2.47;;
43710;SDS011;29309;42.682;23.372;2022-07-29T10:46:41;2.90;;;2.25;;
43710;SDS011;29309;42.682;23.372;2022-07-29T10:49:11;7.03;;;3.67;;
43710;SDS011;29309;42.682;23.372;2022-07-29T11:07:26;4.78;;;2.70;;
43710;SDS011;29309;42.682;23.372;2022-07-29T11:15:04;5.00;;;3.00;;
43710;SDS011;29309;42.682;23.372;2022-07-29T11:22:57;4.25;;;2.95;;
43710;SDS011;29309;42.682;23.372;2022-07-29T11:25:22;3.88;;;3.20;;
43710;SDS011;29309;42.682;23.372;2022-07-29T11:27:49;4.30;;;3.10;;
43710;SDS011;29309;42.682;23.372;2022-07-29T11:30:15;4.68;;;3.28;;
43710;SDS011;29309;42.682;23.372;2022-07-29T11:32:42;4.18;;;2.90;;
43710;SDS011;29309;42.682;23.372;2022-07-29T11:35:16;3.63;;;2.92;;
43710;SDS011;29309;42.682;23.372;2022-07-29T11:37:44;5.68;;;3.08;;
43710;SDS011;29309;42.682;23.372;2022-07-29T11:40:11;6.35;;;3.80;;
43710;SDS011;29309;42.682;23.372;2022-07-29T11:42:39;5.63;;;3.30;;
43710;SDS011;29309;42.682;23.372;2022-07-29T11:45:08;4.53;;;2.97;;
43710;SDS011;29309;42.682;23.372;2022-07-29T11:47:56;4.85;;;2.70;;
43710;SDS011;29309;42.682;23.372;2022-07-29T11:53:02;4.25;;;3.20;;
43710;SDS011;29309;42.682;23.372;2022-07-29T11:55:34;4.00;;;3.47;;
43710;SDS011;29309;42.682;23.372;2022-07-29T11:58:02;4.40;;;3.30;;
43710;SDS011;29309;42.682;23.372;2022-07-29T12:00:32;4.10;;;3.10;;
43710;SDS011;29309;42.682;23.372;2022-07-29T12:03:01;5.13;;;2.85;;
43710;SDS011;29309;42.682;23.372;2022-07-29T12:08:09;4.47;;;2.90;;
43710;SDS011;29309;42.682;23.372;2022-07-29T12:10:44;3.13;;;2.83;;
43710;SDS011;29309;42.682;23.372;2022-07-29T12:13:12;3.75;;;3.35;;
43710;SDS011;29309;42.682;23.372;2022-07-29T12:15:39;5.25;;;3.80;;
43710;SDS011;29309;42.682;23.372;2022-07-29T12:18:09;4.45;;;2.97;;
43710;SDS011;29309;42.682;23.372;2022-07-29T12:20:39;4.10;;;3.25;;
43710;SDS011;29309;42.682;23.372;2022-07-29T12:23:05;7.25;;;3.35;;
43710;SDS011;29309;42.682;23.372;2022-07-29T12:25:39;4.50;;;3.88;;
43710;SDS011;29309;42.682;23.372;2022-07-29T12:28:07;3.38;;;3.08;;
43710;SDS011;29309;42.682;23.372;2022-07-29T12:30:47;6.35;;;3.40;;
43710;SDS011;29309;42.682;23.372;2022-07-29T12:33:21;5.05;;;3.80;;
43710;SDS011;29309;42.682;23.372;2022-07-29T12:36:01;5.78;;;3.70;;
43710;SDS011;29309;42.682;23.372;2022-07-29T12:38:28;4.05;;;3.65;;
43710;SDS011;29309;42.682;23.372;2022-07-29T12:40:54;5.82;;;3.53;;
43710;SDS011;29309;42.682;23.372;2022-07-29T12:45:50;3.53;;;3.22;;
43710;SDS011;29309;42.682;23.372;2022-07-29T12:48:32;7.68;;;3.85;;
43710;SDS011;29309;42.682;23.372;2022-07-29T12:51:01;4.18;;;3.60;;
43710;SDS011;29309;42.682;23.372;2022-07-29T12:53:27;6.00;;;4.57;;
43710;SDS011;29309;42.682;23.372;2022-07-29T12:55:54;4.50;;;3.95;;
43710;SDS011;29309;42.682;23.372;2022-07-29T12:58:27;5.03;;;4.53;;
43710;SDS011;29309;42.682;23.372;2022-07-29T13:03:53;4.82;;;4.05;;
43710;SDS011;29309;42.682;23.372;2022-07-29T13:09:09;4.10;;;3.70;;
43710;SDS011;29309;42.682;23.372;2022-07-29T13:11:38;4.40;;;4.00;;
43710;SDS011;29309;42.682;23.372;2022-07-29T13:14:07;6.57;;;4.28;;
43710;SDS011;29309;42.682;23.372;2022-07-29T13:16:33;3.67;;;3.30;;
43710;SDS011;29309;42.682;23.372;2022-07-29T13:19:06;4.60;;;3.90;;
43710;SDS011;29309;42.682;23.372;2022-07-29T13:21:34;4.57;;;3.75;;
43710;SDS011;29309;42.682;23.372;2022-07-29T13:24:00;5.55;;;4.38;;
43710;SDS011;29309;42.682;23.372;2022-07-29T13:26:26;5.88;;;3.90;;
43710;SDS011;29309;42.682;23.372;2022-07-29T13:28:52;4.10;;;3.70;;
43710;SDS011;29309;42.682;23.372;2022-07-29T13:31:18;5.32;;;3.75;;
43710;SDS011;29309;42.682;23.372;2022-07-29T13:33:44;3.67;;;3.22;;
43710;SDS011;29309;42.682;23.372;2022-07-29T13:36:09;7.47;;;3.63;;
43710;SDS011;29309;42.682;23.372;2022-07-29T13:38:35;5.07;;;3.83;;
43710;SDS011;29309;42.682;23.372;2022-07-29T13:41:00;9.43;;;3.72;;
43710;SDS011;29309;42.682;23.372;2022-07-29T13:43:26;3.67;;;3.30;;
43710;SDS011;29309;42.682;23.372;2022-07-29T13:45:51;5.20;;;3.08;;
43710;SDS011;29309;42.682;23.372;2022-07-29T13:48:17;4.60;;;3.47;;
43710;SDS011;29309;42.682;23.372;2022-07-29T13:50:42;5.95;;;3.10;;
43710;SDS011;29309;42.682;23.372;2022-07-29T13:53:08;6.60;;;3.53;;
43710;SDS011;29309;42.682;23.372;2022-07-29T13:55:33;5.78;;;3.67;;
43710;SDS011;29309;42.682;23.372;2022-07-29T13:57:59;7.72;;;3.63;;
43710;SDS011;29309;42.682;23.372;2022-07-29T14:00:25;4.03;;;3.28;;
43710;SDS011;29309;42.682;23.372;2022-07-29T14:02:51;3.38;;;3.08;;
43710;SDS011;29309;42.682;23.372;2022-07-29T14:05:17;3.80;;;3.40;;
43710;SDS011;29309;42.682;23.372;2022-07-29T14:07:43;5.57;;;3.60;;
43710;SDS011;29309;42.682;23.372;2022-07-29T14:10:09;6.25;;;3.50;;
43710;SDS011;29309;42.682;23.372;2022-07-29T14:12:34;4.50;;;3.78;;
43710;SDS011;29309;42.682;23.372;2022-07-29T14:15:00;3.83;;;3.42;;
43710;SDS011;29309;42.682;23.372;2022-07-29T14:17:25;7.20;;;3.55;;
43710;SDS011;29309;42.682;23.372;2022-07-29T14:19:51;6.35;;;3.78;;
43710;SDS011;29309;42.682;23.372;2022-07-29T14:22:16;4.75;;;3.78;;
43710;SDS011;29309;42.682;23.372;2022-07-29T14:24:44;3.97;;;3.58;;
43710;SDS011;29309;42.682;23.372;2022-07-29T14:27:10;4.82;;;3.75;;
43710;SDS011;29309;42.682;23.372;2022-07-29T14:29:36;7.25;;;3.40;;
43710;SDS011;29309;42.682;23.372;2022-07-29T14:32:02;3.83;;;3.47;;
43710;SDS011;29309;42.682;23.372;2022-07-29T14:34:28;5.65;;;4.03;;
43710;SDS011;29309;42.682;23.372;2022-07-29T14:36:54;4.93;;;3.50;;
43710;SDS011;29309;42.682;23.372;2022-07-29T14:39:21;5.88;;;3.65;;
43710;SDS011;29309;42.682;23.372;2022-07-29T14:41:48;3.60;;;3.20;;
43710;SDS011;29309;42.682;23.372;2022-07-29T14:44:14;5.30;;;3.40;;
43710;SDS011;29309;42.682;23.372;2022-07-29T14:46:39;4.97;;;3.60;;
43710;SDS011;29309;42.682;23.372;2022-07-29T14:49:05;3.88;;;3.47;;
43710;SDS011;29309;42.682;23.372;2022-07-29T14:51:31;3.85;;;3.33;;
43710;SDS011;29309;42.682;23.372;2022-07-29T14:53:56;5.35;;;3.92;;
43710;SDS011;29309;42.682;23.372;2022-07-29T14:56:22;4.22;;;3.70;;
43710;SDS011;29309;42.682;23.372;2022-07-29T14:58:48;7.50;;;4.25;;
43710;SDS011;29309;42.682;23.372;2022-07-29T15:01:14;6.93;;;4.28;;
43710;SDS011;29309;42.682;23.372;2022-07-29T15:03:39;5.90;;;3.80;;
43710;SDS011;29309;42.682;23.372;2022-07-29T15:06:05;4.85;;;4.05;;
43710;SDS011;29309;42.682;23.372;2022-07-29T15:08:30;4.65;;;4.20;;
43710;SDS011;29309;42.682;23.372;2022-07-29T15:10:56;3.90;;;3.40;;
43710;SDS011;29309;42.682;23.372;2022-07-29T15:13:25;6.70;;;4.10;;
43710;SDS011;29309;42.682;23.372;2022-07-29T15:15:51;4.18;;;3.78;;
43710;SDS011;29309;42.682;23.372;2022-07-29T15:18:17;5.60;;;3.47;;
43710;SDS011;29309;42.682;23.372;2022-07-29T15:20:42;4.63;;;3.50;;
43710;SDS011;29309;42.682;23.372;2022-07-29T15:23:11;6.05;;;3.88;;
43710;SDS011;29309;42.682;23.372;2022-07-29T15:25:37;4.30;;;3.75;;
43710;SDS011;29309;42.682;23.372;2022-07-29T15:28:03;5.40;;;3.70;;
43710;SDS011;29309;42.682;23.372;2022-07-29T15:30:32;5.20;;;3.92;;
43710;SDS011;29309;42.682;23.372;2022-07-29T15:33:00;4.10;;;3.70;;
43710;SDS011;29309;42.682;23.372;2022-07-29T15:35:26;4.68;;;4.15;;
43710;SDS011;29309;42.682;23.372;2022-07-29T15:37:52;4.22;;;3.42;;
43710;SDS011;29309;42.682;23.372;2022-07-29T15:40:17;5.72;;;3.67;;